Pocatello, Idaho
Current Conditions -  °F | °C
As of 8:53 AM on Sunday 21 Dec 2014 (Local Time) from KPIH Reporting Station
Broken Clouds Broken Clouds  
Wind Chill: 34°   Ceiling: 1000
Heat Index: 43°   Visibility: 10mi
Dew Point: 42°   Wind: 24mph
Humidity: 97%   Direction: 240°WSW
Pressure: 29.81"   Gusts: 31mph
Location:  42.87°N, 112.45°W
Report Text: KPIH 211553Z 24021G27KT 10SM BKN010 06/06 A2981 RMK AO2 PK WND 24030/1537 SLP093 T00610056
Loading
Personal Weather Stations






























Interactive Weather Map New forecast layout! Learn more

10-Day Weather Forecast

Advertisements
Track Severe Weather on mobile